sensor_id;sensor_type;location;lat;lon;timestamp;P1;durP1;ratioP1;P2;durP2;ratioP2
41689;SDS011;27372;42.658;23.256;2024-02-26T07:52:41;41.00;;;25.80;;
41689;SDS011;27372;42.658;23.256;2024-02-26T07:55:07;44.17;;;25.98;;
41689;SDS011;27372;42.658;23.256;2024-02-26T07:57:33;41.28;;;25.80;;
41689;SDS011;27372;42.658;23.256;2024-02-26T07:59:59;43.00;;;26.33;;
41689;SDS011;27372;42.658;23.256;2024-02-26T08:02:25;40.80;;;25.30;;
41689;SDS011;27372;42.658;23.256;2024-02-26T08:04:50;43.88;;;27.35;;
41689;SDS011;27372;42.658;23.256;2024-02-26T08:07:16;42.53;;;25.30;;
41689;SDS011;27372;42.658;23.256;2024-02-26T08:09:42;41.53;;;24.33;;
41689;SDS011;27372;42.658;23.256;2024-02-26T08:12:11;42.10;;;24.13;;
41689;SDS011;27372;42.658;23.256;2024-02-26T08:14:37;36.38;;;23.70;;
41689;SDS011;27372;42.658;23.256;2024-02-26T08:17:03;37.15;;;23.42;;
41689;SDS011;27372;42.658;23.256;2024-02-26T08:19:28;42.60;;;24.85;;
41689;SDS011;27372;42.658;23.256;2024-02-26T08:21:54;40.30;;;25.55;;
41689;SDS011;27372;42.658;23.256;2024-02-26T08:24:19;42.33;;;24.83;;
41689;SDS011;27372;42.658;23.256;2024-02-26T08:26:45;36.72;;;24.05;;
41689;SDS011;27372;42.658;23.256;2024-02-26T08:29:11;37.33;;;23.65;;
41689;SDS011;27372;42.658;23.256;2024-02-26T08:31:36;45.03;;;23.50;;
41689;SDS011;27372;42.658;23.256;2024-02-26T08:34:03;39.78;;;22.13;;
41689;SDS011;27372;42.658;23.256;2024-02-26T08:36:29;38.40;;;21.90;;
41689;SDS011;27372;42.658;23.256;2024-02-26T08:38:56;39.15;;;23.80;;
41689;SDS011;27372;42.658;23.256;2024-02-26T08:41:22;38.92;;;25.05;;
41689;SDS011;27372;42.658;23.256;2024-02-26T08:43:47;41.78;;;26.10;;
41689;SDS011;27372;42.658;23.256;2024-02-26T08:46:13;43.88;;;26.17;;
41689;SDS011;27372;42.658;23.256;2024-02-26T08:48:39;48.45;;;26.30;;
41689;SDS011;27372;42.658;23.256;2024-02-26T08:51:08;47.22;;;25.58;;
41689;SDS011;27372;42.658;23.256;2024-02-26T08:53:34;42.50;;;25.58;;
41689;SDS011;27372;42.658;23.256;2024-02-26T08:56:01;40.78;;;24.70;;
41689;SDS011;27372;42.658;23.256;2024-02-26T08:58:27;46.08;;;25.50;;
41689;SDS011;27372;42.658;23.256;2024-02-26T09:00:54;43.50;;;26.50;;
41689;SDS011;27372;42.658;23.256;2024-02-26T09:03:20;49.95;;;27.45;;
41689;SDS011;27372;42.658;23.256;2024-02-26T09:05:45;48.33;;;27.45;;
41689;SDS011;27372;42.658;23.256;2024-02-26T09:08:11;56.78;;;29.20;;
41689;SDS011;27372;42.658;23.256;2024-02-26T09:10:37;51.38;;;28.02;;
41689;SDS011;27372;42.658;23.256;2024-02-26T09:13:03;47.63;;;27.25;;
41689;SDS011;27372;42.658;23.256;2024-02-26T09:15:29;49.60;;;27.63;;
41689;SDS011;27372;42.658;23.256;2024-02-26T09:17:54;41.75;;;25.48;;
41689;SDS011;27372;42.658;23.256;2024-02-26T09:20:20;44.50;;;26.48;;
41689;SDS011;27372;42.658;23.256;2024-02-26T09:22:46;41.85;;;25.30;;
41689;SDS011;27372;42.658;23.256;2024-02-26T09:25:12;48.05;;;27.38;;
41689;SDS011;27372;42.658;23.256;2024-02-26T09:27:39;50.28;;;26.20;;
41689;SDS011;27372;42.658;23.256;2024-02-26T09:30:04;43.15;;;25.73;;
41689;SDS011;27372;42.658;23.256;2024-02-26T09:32:30;43.15;;;23.50;;
41689;SDS011;27372;42.658;23.256;2024-02-26T09:34:56;43.22;;;26.00;;
41689;SDS011;27372;42.658;23.256;2024-02-26T09:37:21;41.67;;;22.92;;
41689;SDS011;27372;42.658;23.256;2024-02-26T09:39:47;39.40;;;23.45;;
41689;SDS011;27372;42.658;23.256;2024-02-26T09:42:13;44.65;;;23.92;;
41689;SDS011;27372;42.658;23.256;2024-02-26T09:44:39;39.95;;;22.80;;
41689;SDS011;27372;42.658;23.256;2024-02-26T09:47:07;42.17;;;21.38;;
41689;SDS011;27372;42.658;23.256;2024-02-26T09:49:35;30.23;;;19.08;;
41689;SDS011;27372;42.658;23.256;2024-02-26T09:52:02;34.63;;;19.48;;
41689;SDS011;27372;42.658;23.256;2024-02-26T09:54:29;34.88;;;18.80;;
41689;SDS011;27372;42.658;23.256;2024-02-26T09:56:58;35.00;;;19.08;;
41689;SDS011;27372;42.658;23.256;2024-02-26T09:59:26;23.45;;;15.40;;
41689;SDS011;27372;42.658;23.256;2024-02-26T10:01:53;24.55;;;9.57;;
41689;SDS011;27372;42.658;23.256;2024-02-26T10:04:20;7.90;;;5.75;;
41689;SDS011;27372;42.658;23.256;2024-02-26T10:06:46;11.73;;;5.57;;
41689;SDS011;27372;42.658;23.256;2024-02-26T10:09:12;9.82;;;5.93;;
41689;SDS011;27372;42.658;23.256;2024-02-26T10:11:41;7.75;;;5.50;;
41689;SDS011;27372;42.658;23.256;2024-02-26T10:14:08;8.88;;;5.65;;
41689;SDS011;27372;42.658;23.256;2024-02-26T10:16:43;8.35;;;6.00;;
41689;SDS011;27372;42.658;23.256;2024-02-26T10:19:24;9.45;;;5.85;;
41689;SDS011;27372;42.658;23.256;2024-02-26T10:21:55;12.50;;;6.65;;
41689;SDS011;27372;42.658;23.256;2024-02-26T10:24:22;11.73;;;6.65;;
41689;SDS011;27372;42.658;23.256;2024-02-26T10:26:48;8.50;;;6.13;;
41689;SDS011;27372;42.658;23.256;2024-02-26T10:29:14;7.93;;;5.68;;
41689;SDS011;27372;42.658;23.256;2024-02-26T10:31:42;12.52;;;6.78;;
41689;SDS011;27372;42.658;23.256;2024-02-26T10:34:08;9.95;;;6.85;;
41689;SDS011;27372;42.658;23.256;2024-02-26T10:36:34;11.18;;;6.10;;
41689;SDS011;27372;42.658;23.256;2024-02-26T10:39:03;8.85;;;6.35;;
41689;SDS011;27372;42.658;23.256;2024-02-26T10:41:30;10.13;;;6.38;;
41689;SDS011;27372;42.658;23.256;2024-02-26T10:43:55;12.50;;;6.32;;
41689;SDS011;27372;42.658;23.256;2024-02-26T10:46:21;11.48;;;6.40;;
41689;SDS011;27372;42.658;23.256;2024-02-26T10:48:50;15.75;;;6.20;;
41689;SDS011;27372;42.658;23.256;2024-02-26T10:51:16;9.52;;;6.05;;
41689;SDS011;27372;42.658;23.256;2024-02-26T10:53:45;9.32;;;5.72;;
41689;SDS011;27372;42.658;23.256;2024-02-26T10:56:15;9.20;;;6.15;;
41689;SDS011;27372;42.658;23.256;2024-02-26T10:58:43;11.25;;;6.00;;
41689;SDS011;27372;42.658;23.256;2024-02-26T11:01:21;11.48;;;5.90;;
41689;SDS011;27372;42.658;23.256;2024-02-26T11:04:17;13.48;;;6.70;;
41689;SDS011;27372;42.658;23.256;2024-02-26T11:06:53;11.20;;;6.53;;
41689;SDS011;27372;42.658;23.256;2024-02-26T11:09:22;14.65;;;6.60;;
41689;SDS011;27372;42.658;23.256;2024-02-26T11:12:00;13.60;;;7.05;;
41689;SDS011;27372;42.658;23.256;2024-02-26T11:14:56;9.18;;;6.07;;
41689;SDS011;27372;42.658;23.256;2024-02-26T11:17:28;10.70;;;5.75;;
41689;SDS011;27372;42.658;23.256;2024-02-26T11:20:28;12.55;;;6.00;;
41689;SDS011;27372;42.658;23.256;2024-02-26T11:22:57;12.75;;;6.00;;
41689;SDS011;27372;42.658;23.256;2024-02-26T11:25:31;8.32;;;5.90;;
41689;SDS011;27372;42.658;23.256;2024-02-26T11:27:58;14.57;;;6.40;;
41689;SDS011;27372;42.658;23.256;2024-02-26T11:30:28;14.80;;;6.47;;
41689;SDS011;27372;42.658;23.256;2024-02-26T11:32:56;13.60;;;6.30;;
41689;SDS011;27372;42.658;23.256;2024-02-26T11:35:22;12.82;;;5.90;;
41689;SDS011;27372;42.658;23.256;2024-02-26T11:37:56;11.98;;;6.40;;
41689;SDS011;27372;42.658;23.256;2024-02-26T11:40:25;12.02;;;6.20;;
41689;SDS011;27372;42.658;23.256;2024-02-26T11:42:51;11.85;;;6.10;;
41689;SDS011;27372;42.658;23.256;2024-02-26T11:48:11;9.70;;;6.22;;
41689;SDS011;27372;42.658;23.256;2024-02-26T11:50:41;13.57;;;6.30;;
41689;SDS011;27372;42.658;23.256;2024-02-26T11:53:20;10.73;;;5.60;;
41689;SDS011;27372;42.658;23.256;2024-02-26T11:58:40;7.90;;;5.88;;
41689;SDS011;27372;42.658;23.256;2024-02-26T12:01:06;13.57;;;6.80;;
41689;SDS011;27372;42.658;23.256;2024-02-26T12:03:52;13.38;;;6.47;;
41689;SDS011;27372;42.658;23.256;2024-02-26T12:06:20;13.88;;;5.72;;
41689;SDS011;27372;42.658;23.256;2024-02-26T12:08:46;11.57;;;5.88;;
41689;SDS011;27372;42.658;23.256;2024-02-26T12:11:15;8.00;;;5.20;;
41689;SDS011;27372;42.658;23.256;2024-02-26T12:13:41;13.55;;;4.88;;
41689;SDS011;27372;42.658;23.256;2024-02-26T12:16:07;10.63;;;5.07;;
41689;SDS011;27372;42.658;23.256;2024-02-26T12:18:34;12.57;;;5.22;;
41689;SDS011;27372;42.658;23.256;2024-02-26T12:21:00;8.88;;;4.65;;
41689;SDS011;27372;42.658;23.256;2024-02-26T12:23:26;8.15;;;4.38;;
41689;SDS011;27372;42.658;23.256;2024-02-26T12:25:52;8.10;;;4.78;;
41689;SDS011;27372;42.658;23.256;2024-02-26T12:28:17;8.25;;;4.40;;
41689;SDS011;27372;42.658;23.256;2024-02-26T12:30:43;10.40;;;4.95;;
41689;SDS011;27372;42.658;23.256;2024-02-26T12:33:08;7.13;;;4.95;;
41689;SDS011;27372;42.658;23.256;2024-02-26T12:35:34;9.70;;;4.82;;
41689;SDS011;27372;42.658;23.256;2024-02-26T12:38:00;9.55;;;5.13;;
41689;SDS011;27372;42.658;23.256;2024-02-26T12:40:29;7.38;;;4.78;;
41689;SDS011;27372;42.658;23.256;2024-02-26T12:42:55;7.63;;;4.80;;
41689;SDS011;27372;42.658;23.256;2024-02-26T12:45:20;7.97;;;4.60;;
41689;SDS011;27372;42.658;23.256;2024-02-26T12:47:46;9.10;;;5.30;;
41689;SDS011;27372;42.658;23.256;2024-02-26T12:50:12;9.10;;;5.00;;
41689;SDS011;27372;42.658;23.256;2024-02-26T12:52:40;9.75;;;4.95;;
41689;SDS011;27372;42.658;23.256;2024-02-26T12:55:08;11.93;;;5.13;;
41689;SDS011;27372;42.658;23.256;2024-02-26T12:57:38;6.53;;;4.75;;
41689;SDS011;27372;42.658;23.256;2024-02-26T13:00:06;8.43;;;4.22;;
41689;SDS011;27372;42.658;23.256;2024-02-26T13:02:36;8.32;;;5.03;;
41689;SDS011;27372;42.658;23.256;2024-02-26T13:05:05;10.43;;;4.57;;
41689;SDS011;27372;42.658;23.256;2024-02-26T13:07:33;6.97;;;5.53;;
41689;SDS011;27372;42.658;23.256;2024-02-26T13:09:59;6.75;;;4.43;;
41689;SDS011;27372;42.658;23.256;2024-02-26T13:12:25;9.10;;;4.47;;
41689;SDS011;27372;42.658;23.256;2024-02-26T13:15:00;10.70;;;5.03;;
41689;SDS011;27372;42.658;23.256;2024-02-26T13:17:27;8.20;;;5.00;;
41689;SDS011;27372;42.658;23.256;2024-02-26T13:19:53;8.55;;;4.50;;
41689;SDS011;27372;42.658;23.256;2024-02-26T13:22:22;10.55;;;5.05;;
41689;SDS011;27372;42.658;23.256;2024-02-26T13:24:55;8.23;;;4.18;;
41689;SDS011;27372;42.658;23.256;2024-02-26T13:27:25;9.43;;;4.22;;
41689;SDS011;27372;42.658;23.256;2024-02-26T13:30:10;11.55;;;4.65;;
41689;SDS011;27372;42.658;23.256;2024-02-26T13:32:38;6.00;;;4.05;;
41689;SDS011;27372;42.658;23.256;2024-02-26T13:35:08;7.07;;;4.32;;
41689;SDS011;27372;42.658;23.256;2024-02-26T13:37:36;11.20;;;4.50;;
41689;SDS011;27372;42.658;23.256;2024-02-26T13:42:33;8.20;;;4.07;;
41689;SDS011;27372;42.658;23.256;2024-02-26T13:45:00;8.88;;;4.18;;
41689;SDS011;27372;42.658;23.256;2024-02-26T13:47:26;8.00;;;4.22;;
41689;SDS011;27372;42.658;23.256;2024-02-26T13:49:51;7.78;;;4.30;;
41689;SDS011;27372;42.658;23.256;2024-02-26T13:52:17;6.15;;;4.18;;
41689;SDS011;27372;42.658;23.256;2024-02-26T13:54:45;7.43;;;3.88;;
41689;SDS011;27372;42.658;23.256;2024-02-26T13:57:11;14.15;;;4.30;;
41689;SDS011;27372;42.658;23.256;2024-02-26T13:59:36;5.97;;;4.20;;
41689;SDS011;27372;42.658;23.256;2024-02-26T14:02:02;9.65;;;3.95;;
41689;SDS011;27372;42.658;23.256;2024-02-26T14:04:29;6.28;;;4.55;;
41689;SDS011;27372;42.658;23.256;2024-02-26T14:06:54;8.73;;;4.40;;
41689;SDS011;27372;42.658;23.256;2024-02-26T14:09:20;8.25;;;4.07;;
41689;SDS011;27372;42.658;23.256;2024-02-26T14:11:45;8.73;;;3.80;;
41689;SDS011;27372;42.658;23.256;2024-02-26T14:14:11;10.57;;;4.03;;
41689;SDS011;27372;42.658;23.256;2024-02-26T14:16:36;6.05;;;3.80;;
41689;SDS011;27372;42.658;23.256;2024-02-26T14:19:02;8.35;;;4.32;;
41689;SDS011;27372;42.658;23.256;2024-02-26T14:21:28;7.72;;;4.60;;
41689;SDS011;27372;42.658;23.256;2024-02-26T14:23:54;7.72;;;5.00;;
41689;SDS011;27372;42.658;23.256;2024-02-26T14:26:21;12.38;;;5.38;;
41689;SDS011;27372;42.658;23.256;2024-02-26T14:28:47;8.07;;;5.63;;
41689;SDS011;27372;42.658;23.256;2024-02-26T14:31:13;9.93;;;4.45;;
41689;SDS011;27372;42.658;23.256;2024-02-26T14:33:38;8.90;;;4.40;;
41689;SDS011;27372;42.658;23.256;2024-02-26T14:36:07;10.30;;;4.75;;
41689;SDS011;27372;42.658;23.256;2024-02-26T14:38:33;11.43;;;6.00;;
41689;SDS011;27372;42.658;23.256;2024-02-26T14:40:58;9.32;;;5.45;;
41689;SDS011;27372;42.658;23.256;2024-02-26T14:43:23;10.80;;;5.03;;
41689;SDS011;27372;42.658;23.256;2024-02-26T14:45:49;9.52;;;4.05;;
41689;SDS011;27372;42.658;23.256;2024-02-26T14:48:15;9.88;;;4.85;;
41689;SDS011;27372;42.658;23.256;2024-02-26T14:50:41;11.90;;;4.20;;
41689;SDS011;27372;42.658;23.256;2024-02-26T14:53:06;14.90;;;3.95;;
41689;SDS011;27372;42.658;23.256;2024-02-26T14:55:32;11.77;;;4.05;;
41689;SDS011;27372;42.658;23.256;2024-02-26T14:57:57;18.67;;;4.25;;
41689;SDS011;27372;42.658;23.256;2024-02-26T15:00:23;10.43;;;4.03;;
41689;SDS011;27372;42.658;23.256;2024-02-26T15:02:48;9.50;;;3.80;;
41689;SDS011;27372;42.658;23.256;2024-02-26T15:05:14;6.95;;;3.80;;
41689;SDS011;27372;42.658;23.256;2024-02-26T15:07:41;15.00;;;8.93;;
41689;SDS011;27372;42.658;23.256;2024-02-26T15:10:07;8.82;;;5.57;;
41689;SDS011;27372;42.658;23.256;2024-02-26T15:12:33;10.07;;;4.43;;
41689;SDS011;27372;42.658;23.256;2024-02-26T15:14:59;10.10;;;4.10;;
41689;SDS011;27372;42.658;23.256;2024-02-26T15:17:25;10.93;;;3.97;;
41689;SDS011;27372;42.658;23.256;2024-02-26T15:19:53;6.13;;;3.83;;
41689;SDS011;27372;42.658;23.256;2024-02-26T15:22:19;9.77;;;4.72;;
41689;SDS011;27372;42.658;23.256;2024-02-26T15:24:44;11.65;;;4.45;;
41689;SDS011;27372;42.658;23.256;2024-02-26T15:27:12;10.40;;;5.10;;
41689;SDS011;27372;42.658;23.256;2024-02-26T15:29:37;9.73;;;5.47;;
41689;SDS011;27372;42.658;23.256;2024-02-26T15:32:04;12.70;;;3.92;;
41689;SDS011;27372;42.658;23.256;2024-02-26T15:34:30;15.25;;;4.70;;
41689;SDS011;27372;42.658;23.256;2024-02-26T15:36:56;15.32;;;4.82;;
41689;SDS011;27372;42.658;23.256;2024-02-26T15:39:21;11.70;;;5.40;;
41689;SDS011;27372;42.658;23.256;2024-02-26T15:41:47;17.30;;;6.50;;
41689;SDS011;27372;42.658;23.256;2024-02-26T15:44:12;12.85;;;6.13;;
41689;SDS011;27372;42.658;23.256;2024-02-26T15:46:39;15.82;;;5.97;;
41689;SDS011;27372;42.658;23.256;2024-02-26T15:49:07;13.15;;;5.85;;
41689;SDS011;27372;42.658;23.256;2024-02-26T15:51:33;12.20;;;6.32;;
41689;SDS011;27372;42.658;23.256;2024-02-26T15:53:59;16.73;;;6.97;;
41689;SDS011;27372;42.658;23.256;2024-02-26T15:56:24;11.55;;;5.65;;
41689;SDS011;27372;42.658;23.256;2024-02-26T15:58:51;16.33;;;5.85;;
41689;SDS011;27372;42.658;23.256;2024-02-26T16:01:17;14.40;;;6.05;;
41689;SDS011;27372;42.658;23.256;2024-02-26T16:03:44;9.35;;;5.00;;
41689;SDS011;27372;42.658;23.256;2024-02-26T16:06:19;15.35;;;6.57;;
41689;SDS011;27372;42.658;23.256;2024-02-26T16:08:51;16.33;;;6.90;;
41689;SDS011;27372;42.658;23.256;2024-02-26T16:11:17;19.88;;;7.35;;
41689;SDS011;27372;42.658;23.256;2024-02-26T16:13:43;18.00;;;8.27;;
41689;SDS011;27372;42.658;23.256;2024-02-26T16:16:12;19.52;;;8.60;;
41689;SDS011;27372;42.658;23.256;2024-02-26T16:18:42;16.83;;;8.07;;
41689;SDS011;27372;42.658;23.256;2024-02-26T16:21:08;17.13;;;7.30;;
41689;SDS011;27372;42.658;23.256;2024-02-26T16:23:34;19.83;;;7.90;;
41689;SDS011;27372;42.658;23.256;2024-02-26T16:26:00;17.75;;;8.20;;
41689;SDS011;27372;42.658;23.256;2024-02-26T16:28:26;17.70;;;8.73;;
41689;SDS011;27372;42.658;23.256;2024-02-26T16:30:52;89.70;;;44.90;;
41689;SDS011;27372;42.658;23.256;2024-02-26T16:33:35;51.55;;;22.10;;
41689;SDS011;27372;42.658;23.256;2024-02-26T16:36:01;11.10;;;6.60;;
41689;SDS011;27372;42.658;23.256;2024-02-26T16:38:27;28.02;;;14.65;;
41689;SDS011;27372;42.658;23.256;2024-02-26T16:40:52;20.70;;;10.63;;
41689;SDS011;27372;42.658;23.256;2024-02-26T16:43:17;28.98;;;13.88;;
41689;SDS011;27372;42.658;23.256;2024-02-26T16:45:43;27.50;;;11.75;;
41689;SDS011;27372;42.658;23.256;2024-02-26T16:48:08;18.42;;;9.82;;
41689;SDS011;27372;42.658;23.256;2024-02-26T16:50:34;20.10;;;10.50;;
41689;SDS011;27372;42.658;23.256;2024-02-26T16:52:59;23.67;;;11.35;;
41689;SDS011;27372;42.658;23.256;2024-02-26T16:55:24;20.38;;;10.57;;
41689;SDS011;27372;42.658;23.256;2024-02-26T16:57:52;16.95;;;9.43;;
41689;SDS011;27372;42.658;23.256;2024-02-26T17:00:17;15.40;;;8.18;;
41689;SDS011;27372;42.658;23.256;2024-02-26T17:02:43;13.75;;;7.00;;
41689;SDS011;27372;42.658;23.256;2024-02-26T17:05:09;10.32;;;6.53;;
41689;SDS011;27372;42.658;23.256;2024-02-26T17:07:35;12.40;;;6.38;;
41689;SDS011;27372;42.658;23.256;2024-02-26T17:10:00;10.65;;;5.70;;
41689;SDS011;27372;42.658;23.256;2024-02-26T17:12:26;13.48;;;6.18;;
41689;SDS011;27372;42.658;23.256;2024-02-26T17:14:51;13.02;;;6.75;;
41689;SDS011;27372;42.658;23.256;2024-02-26T17:17:17;13.50;;;6.90;;
41689;SDS011;27372;42.658;23.256;2024-02-26T17:19:42;16.58;;;6.90;;
41689;SDS011;27372;42.658;23.256;2024-02-26T17:22:08;14.13;;;6.70;;
41689;SDS011;27372;42.658;23.256;2024-02-26T17:24:35;11.52;;;6.38;;
41689;SDS011;27372;42.658;23.256;2024-02-26T17:27:00;10.80;;;6.82;;
41689;SDS011;27372;42.658;23.256;2024-02-26T17:29:26;12.30;;;5.90;;
41689;SDS011;27372;42.658;23.256;2024-02-26T17:31:51;15.10;;;7.50;;
41689;SDS011;27372;42.658;23.256;2024-02-26T17:34:17;13.82;;;6.63;;
41689;SDS011;27372;42.658;23.256;2024-02-26T17:36:42;12.35;;;6.82;;
41689;SDS011;27372;42.658;23.256;2024-02-26T17:39:08;12.95;;;7.10;;
41689;SDS011;27372;42.658;23.256;2024-02-26T17:41:34;13.98;;;7.75;;
41689;SDS011;27372;42.658;23.256;2024-02-26T17:43:59;15.32;;;7.60;;
41689;SDS011;27372;42.658;23.256;2024-02-26T17:46:25;16.98;;;7.55;;
41689;SDS011;27372;42.658;23.256;2024-02-26T17:48:50;24.05;;;8.40;;
41689;SDS011;27372;42.658;23.256;2024-02-26T17:51:15;18.52;;;9.10;;
41689;SDS011;27372;42.658;23.256;2024-02-26T17:53:41;19.10;;;8.77;;
41689;SDS011;27372;42.658;23.256;2024-02-26T17:56:06;24.10;;;9.10;;
41689;SDS011;27372;42.658;23.256;2024-02-26T17:58:32;21.60;;;9.13;;
41689;SDS011;27372;42.658;23.256;2024-02-26T18:00:59;22.38;;;10.30;;
41689;SDS011;27372;42.658;23.256;2024-02-26T18:03:25;20.90;;;11.07;;
41689;SDS011;27372;42.658;23.256;2024-02-26T18:05:50;21.95;;;11.77;;
41689;SDS011;27372;42.658;23.256;2024-02-26T18:08:16;21.10;;;10.75;;
41689;SDS011;27372;42.658;23.256;2024-02-26T18:10:46;21.00;;;11.18;;
41689;SDS011;27372;42.658;23.256;2024-02-26T18:13:12;22.92;;;11.32;;
41689;SDS011;27372;42.658;23.256;2024-02-26T18:15:37;18.73;;;11.40;;
41689;SDS011;27372;42.658;23.256;2024-02-26T18:18:03;20.98;;;11.63;;
41689;SDS011;27372;42.658;23.256;2024-02-26T18:20:28;20.67;;;11.80;;
41689;SDS011;27372;42.658;23.256;2024-02-26T18:22:54;22.40;;;11.38;;
41689;SDS011;27372;42.658;23.256;2024-02-26T18:25:19;20.15;;;11.40;;
41689;SDS011;27372;42.658;23.256;2024-02-26T18:27:45;19.52;;;11.75;;
41689;SDS011;27372;42.658;23.256;2024-02-26T18:30:11;26.67;;;13.90;;
41689;SDS011;27372;42.658;23.256;2024-02-26T18:32:36;19.15;;;10.18;;
41689;SDS011;27372;42.658;23.256;2024-02-26T18:35:04;19.40;;;11.02;;
41689;SDS011;27372;42.658;23.256;2024-02-26T18:37:30;22.33;;;10.82;;
41689;SDS011;27372;42.658;23.256;2024-02-26T18:39:55;17.60;;;9.73;;
41689;SDS011;27372;42.658;23.256;2024-02-26T18:42:20;17.25;;;9.88;;
41689;SDS011;27372;42.658;23.256;2024-02-26T18:44:49;20.85;;;9.70;;
41689;SDS011;27372;42.658;23.256;2024-02-26T18:47:14;15.85;;;8.77;;
41689;SDS011;27372;42.658;23.256;2024-02-26T18:49:42;19.13;;;10.32;;
41689;SDS011;27372;42.658;23.256;2024-02-26T18:52:07;16.95;;;9.50;;
41689;SDS011;27372;42.658;23.256;2024-02-26T18:54:33;22.27;;;9.07;;
41689;SDS011;27372;42.658;23.256;2024-02-26T18:56:59;16.42;;;9.25;;
41689;SDS011;27372;42.658;23.256;2024-02-26T18:59:24;19.52;;;8.82;;
41689;SDS011;27372;42.658;23.256;2024-02-26T19:01:50;17.33;;;9.48;;
41689;SDS011;27372;42.658;23.256;2024-02-26T19:04:21;22.70;;;9.70;;
41689;SDS011;27372;42.658;23.256;2024-02-26T19:06:47;20.02;;;11.52;;
41689;SDS011;27372;42.658;23.256;2024-02-26T19:09:12;23.75;;;11.52;;
41689;SDS011;27372;42.658;23.256;2024-02-26T19:11:53;23.02;;;9.82;;
41689;SDS011;27372;42.658;23.256;2024-02-26T19:16:45;16.55;;;8.88;;
41689;SDS011;27372;42.658;23.256;2024-02-26T19:19:11;18.52;;;8.52;;
41689;SDS011;27372;42.658;23.256;2024-02-26T19:21:36;12.48;;;7.75;;
41689;SDS011;27372;42.658;23.256;2024-02-26T19:24:02;14.32;;;7.55;;
41689;SDS011;27372;42.658;23.256;2024-02-26T19:26:28;20.35;;;8.48;;
41689;SDS011;27372;42.658;23.256;2024-02-26T19:28:58;16.42;;;8.40;;
41689;SDS011;27372;42.658;23.256;2024-02-26T19:31:24;18.63;;;9.90;;
41689;SDS011;27372;42.658;23.256;2024-02-26T19:33:53;17.98;;;8.63;;
41689;SDS011;27372;42.658;23.256;2024-02-26T19:36:18;15.38;;;8.55;;
41689;SDS011;27372;42.658;23.256;2024-02-26T19:38:44;18.02;;;8.90;;
41689;SDS011;27372;42.658;23.256;2024-02-26T19:41:10;16.70;;;8.93;;
41689;SDS011;27372;42.658;23.256;2024-02-26T19:43:35;17.55;;;8.93;;
41689;SDS011;27372;42.658;23.256;2024-02-26T19:46:00;16.90;;;9.00;;
41689;SDS011;27372;42.658;23.256;2024-02-26T19:48:28;15.88;;;8.73;;
41689;SDS011;27372;42.658;23.256;2024-02-26T19:53:20;16.98;;;9.18;;
41689;SDS011;27372;42.658;23.256;2024-02-26T19:55:46;14.85;;;8.25;;
41689;SDS011;27372;42.658;23.256;2024-02-26T19:58:11;13.35;;;8.00;;
41689;SDS011;27372;42.658;23.256;2024-02-26T20:00:39;14.60;;;8.77;;
41689;SDS011;27372;42.658;23.256;2024-02-26T20:03:07;18.42;;;8.88;;
41689;SDS011;27372;42.658;23.256;2024-02-26T20:05:33;15.07;;;9.00;;
41689;SDS011;27372;42.658;23.256;2024-02-26T20:07:58;16.27;;;9.13;;
41689;SDS011;27372;42.658;23.256;2024-02-26T20:10:24;11.80;;;7.70;;
41689;SDS011;27372;42.658;23.256;2024-02-26T20:12:49;15.50;;;8.18;;
41689;SDS011;27372;42.658;23.256;2024-02-26T20:15:34;16.20;;;7.65;;
41689;SDS011;27372;42.658;23.256;2024-02-26T20:17:59;13.27;;;8.15;;
41689;SDS011;27372;42.658;23.256;2024-02-26T20:20:25;13.32;;;8.13;;
41689;SDS011;27372;42.658;23.256;2024-02-26T20:22:54;17.27;;;8.60;;
41689;SDS011;27372;42.658;23.256;2024-02-26T20:25:19;16.30;;;9.07;;
41689;SDS011;27372;42.658;23.256;2024-02-26T20:27:45;15.88;;;9.18;;
41689;SDS011;27372;42.658;23.256;2024-02-26T20:30:11;15.68;;;9.52;;
41689;SDS011;27372;42.658;23.256;2024-02-26T20:32:36;18.13;;;9.05;;
41689;SDS011;27372;42.658;23.256;2024-02-26T20:35:02;15.50;;;8.82;;
41689;SDS011;27372;42.658;23.256;2024-02-26T20:37:28;12.57;;;8.50;;
41689;SDS011;27372;42.658;23.256;2024-02-26T20:39:54;13.30;;;8.00;;
41689;SDS011;27372;42.658;23.256;2024-02-26T20:42:19;17.55;;;8.23;;
41689;SDS011;27372;42.658;23.256;2024-02-26T20:44:44;13.73;;;8.43;;
41689;SDS011;27372;42.658;23.256;2024-02-26T20:47:12;16.27;;;7.78;;
41689;SDS011;27372;42.658;23.256;2024-02-26T20:50:29;15.68;;;7.60;;
41689;SDS011;27372;42.658;23.256;2024-02-26T20:52:55;14.73;;;8.15;;
41689;SDS011;27372;42.658;23.256;2024-02-26T20:55:20;14.90;;;7.82;;
41689;SDS011;27372;42.658;23.256;2024-02-26T20:57:45;14.73;;;7.35;;
41689;SDS011;27372;42.658;23.256;2024-02-26T21:00:11;17.98;;;7.88;;
41689;SDS011;27372;42.658;23.256;2024-02-26T21:02:37;13.80;;;8.32;;
41689;SDS011;27372;42.658;23.256;2024-02-26T21:05:05;13.68;;;7.88;;
41689;SDS011;27372;42.658;23.256;2024-02-26T21:07:30;19.23;;;8.50;;
41689;SDS011;27372;42.658;23.256;2024-02-26T21:09:56;14.25;;;7.40;;
41689;SDS011;27372;42.658;23.256;2024-02-26T21:12:23;17.35;;;7.60;;
41689;SDS011;27372;42.658;23.256;2024-02-26T21:14:50;14.13;;;8.00;;
41689;SDS011;27372;42.658;23.256;2024-02-26T21:17:15;14.57;;;8.15;;
41689;SDS011;27372;42.658;23.256;2024-02-26T21:19:41;17.92;;;7.85;;
41689;SDS011;27372;42.658;23.256;2024-02-26T21:22:06;19.13;;;9.07;;
41689;SDS011;27372;42.658;23.256;2024-02-26T21:24:31;16.10;;;8.90;;
41689;SDS011;27372;42.658;23.256;2024-02-26T21:26:57;15.50;;;7.80;;
41689;SDS011;27372;42.658;23.256;2024-02-26T21:29:22;17.73;;;8.60;;
41689;SDS011;27372;42.658;23.256;2024-02-26T21:31:48;17.27;;;8.23;;
41689;SDS011;27372;42.658;23.256;2024-02-26T21:34:13;16.38;;;8.63;;
41689;SDS011;27372;42.658;23.256;2024-02-26T21:36:39;14.55;;;8.50;;
41689;SDS011;27372;42.658;23.256;2024-02-26T21:39:04;14.20;;;8.73;;
41689;SDS011;27372;42.658;23.256;2024-02-26T21:41:30;18.08;;;9.65;;
41689;SDS011;27372;42.658;23.256;2024-02-26T21:43:56;16.15;;;9.05;;
41689;SDS011;27372;42.658;23.256;2024-02-26T21:46:23;17.35;;;8.98;;
41689;SDS011;27372;42.658;23.256;2024-02-26T21:48:49;17.20;;;8.27;;
41689;SDS011;27372;42.658;23.256;2024-02-26T21:51:14;13.35;;;9.00;;
41689;SDS011;27372;42.658;23.256;2024-02-26T21:53:39;22.48;;;8.40;;
41689;SDS011;27372;42.658;23.256;2024-02-26T21:56:06;17.23;;;8.98;;
41689;SDS011;27372;42.658;23.256;2024-02-26T21:58:32;12.35;;;8.77;;
41689;SDS011;27372;42.658;23.256;2024-02-26T22:00:57;16.98;;;9.63;;
41689;SDS011;27372;42.658;23.256;2024-02-26T22:03:23;15.43;;;8.73;;
41689;SDS011;27372;42.658;23.256;2024-02-26T22:05:48;14.60;;;8.52;;
41689;SDS011;27372;42.658;23.256;2024-02-26T22:08:15;12.38;;;8.20;;
41689;SDS011;27372;42.658;23.256;2024-02-26T22:10:41;13.60;;;8.10;;
41689;SDS011;27372;42.658;23.256;2024-02-26T22:13:07;17.38;;;8.75;;
41689;SDS011;27372;42.658;23.256;2024-02-26T22:15:32;26.17;;;14.45;;
41689;SDS011;27372;42.658;23.256;2024-02-26T22:17:58;16.38;;;9.60;;
41689;SDS011;27372;42.658;23.256;2024-02-26T22:20:25;18.75;;;8.77;;
41689;SDS011;27372;42.658;23.256;2024-02-26T22:22:51;17.02;;;9.35;;
41689;SDS011;27372;42.658;23.256;2024-02-26T22:25:16;18.60;;;10.18;;